METAR Data
IDs: Format: Raw Decoded Include TAF

Data at: 1728 UTC 16 Oct 2021

KTRL 161653Z AUTO 35011KT 10SM CLR 21/01 A3038 RMK AO2 SLP285 T02060011
KTRL 161553Z AUTO 02009KT 10SM CLR 19/03 A3038 RMK AO2 SLP285 T01890033
KTRL 161453Z AUTO 02009KT 10SM CLR 17/06 A3038 RMK AO2 SLP285 T01670061 53019
KTRL 161353Z AUTO 02005KT 10SM CLR 13/07 A3036 RMK AO2 SLP278 T01330072
KTRL 161253Z AUTO 01005KT 10SM CLR 10/07 A3034 RMK AO2 SLP271 T01000072
KTRL 161153Z AUTO 36005KT 10SM CLR 12/07 A3033 RMK AO2 SLP266 T01170067 10144 20094 53011
KTRL 161053Z AUTO 36005KT 10SM CLR 12/07 A3031 RMK AO2 SLP259 T01170067
KTRL 160953Z AUTO 35004KT 10SM CLR 12/07 A3030 RMK AO2 SLP257 T01220072
KTRL 160853Z AUTO 34003KT 10SM CLR 12/07 A3029 RMK AO2 SLP255 T01220072 51009
KTRL 160753Z AUTO 34004KT 10SM CLR 13/07 A3029 RMK AO2 SLP255 T01330072
KTRL 160653Z AUTO 36005KT 10SM CLR 13/07 A3028 RMK AO2 SLP250 T01330072
KTRL 160553Z AUTO 34005KT 10SM CLR 14/07 A3027 RMK AO2 SLP244 T01440072 10211 20144 402720144 51024
KTRL 160453Z AUTO 35008KT 10SM CLR 16/07 A3025 RMK AO2 SLP239 T01560072
KTRL 160353Z AUTO 35012G17KT 10SM CLR 17/07 A3022 RMK AO2 SLP228 T01670067
KTRL 160253Z AUTO 35009KT 10SM CLR 17/08 A3020 RMK AO2 SLP220 T01720078 51030
KTRL 160153Z AUTO 35009KT 10SM CLR 18/08 A3017 RMK AO2 SLP212 T01830083
KTRL 160053Z AUTO 35010KT 10SM CLR 19/09 A3014 RMK AO2 SLP200 T01940089
KTRL 152353Z AUTO 35010G21KT 10SM CLR 21/09 A3011 RMK AO2 SLP189 T02110094 10272 20211 53021
KTRL 152253Z AUTO 34010G23KT 10SM CLR 23/11 A3007 RMK AO2 SLP177 T02280111
KTRL 152153Z AUTO 35011G22KT 10SM FEW039 23/14 A3005 RMK AO2 SLP169 T02330144
KTRL 152113Z AUTO 35010G19KT 10SM BKN031 23/16 A3004 RMK AO2 T02280156
KTRL 152053Z AUTO 33013G23KT 10SM OVC029 22/16 A3004 RMK AO2 PK WND 32027/2019 SLP167 T02220161 53021
KTRL 151953Z AUTO 32019G27KT 10SM BKN024 BKN029 23/18 A3001 RMK AO2 PK WND 30028/1938 SLP157 T02280178
KTRL 151929Z AUTO 32016G26KT 10SM BKN029 BKN035 24/18 A3000 RMK AO2 PK WND 29026/1923 T02440183
KTRL 151853Z AUTO 32015KT 10SM SCT028 SCT039 26/18 A2999 RMK AO2 SLP148 T02560183
KTRL 151753Z AUTO 30011G19KT 10SM FEW028 OVC039 26/19 A2998 RMK AO2 SLP146 T02610194 10272 20217 53007
KTRL 151653Z AUTO 26012KT 10SM SCT027 BKN033 26/19 A2997 RMK AO2 SLP143 T02560194
KTRL 151553Z AUTO 24009KT 10SM FEW016 OVC025 24/21 A2996 RMK AO2 SLP139 T02390211
KTRL 151551Z AUTO 24010KT 10SM SCT016 OVC025 24/22 A2996 RMK AO2
KTRL 151527Z AUTO 25010KT 10SM BKN010 OVC015 23/22 A2996 RMK AO2 CIG 008V013 T02280217
KTRL 151453Z AUTO 23010KT 10SM OVC007 23/22 A2994 RMK AO2 SLP133 T02280222 53018
KTRL 151353Z AUTO 20009KT 10SM OVC006 22/22 A2991 RMK AO2 CIG 006V010 SLP123 T02220222 $
KTRL 151253Z AUTO 20010KT 7SM OVC005 22/22 A2989 RMK AO2 SLP116 T02220222 $
KTRL 151153Z AUTO 21011KT 9SM OVC006 22/22 A2989 RMK AO2 SLP113 T02220222 10222 20206 53010 $
KTRL 151121Z AUTO 19007KT 9SM OVC005 22/22 A2988 RMK AO2 CIG 003V008 T02220222 $
KTRL 151053Z AUTO 19007KT 5SM BR OVC003 22/22 A2987 RMK AO2 SLP106 T02170217 $
KTRL 151050Z AUTO 19007KT 5SM BR OVC003 22/22 A2986 RMK AO2 $
KTRL 150957Z AUTO 23003KT 9SM BKN008 21/21 A2986 RMK AO2 T02110211
KTRL 150953Z AUTO 23004KT 9SM SCT010 21/21 A2986 RMK AO2 SLP103 T02060206
KTRL 150853Z AUTO 17007KT 10SM CLR 22/22 A2983 RMK AO2 SLP096 T02170217 58009
KTRL 150753Z AUTO 17008KT 10SM CLR 22/22 A2985 RMK AO2 SLP101 T02170217
KTRL 150653Z AUTO 15007KT 10SM CLR 22/22 A2985 RMK AO2 SLP102 T02170217
KTRL 150553Z AUTO 16004KT 10SM CLR 22/22 A2986 RMK AO2 SLP106 T02170217 10261 20217 402940189 50000